Time;durP1;ratioP1;P1;durP2;ratioP2;P2;SDS_P1;SDS_P2;PMS_P1;PMS_P2;Temp;Humidity;BMP_temperature;BMP_pressure;BME280_temperature;BME280_humidity;BME280_pressure;Samples;Min_cycle;Max_cycle;Signal;HPM_P1;HPM_P2
2023/11/17 00:01:56;;;;;;;5.50;3.05;;;;;;;1.86;94.67;101488.31;5099035;28;20046;-69
2023/11/17 00:04:22;;;;;;;5.53;2.92;;;;;;;1.79;95.30;101478.34;5096128;28;20034;-69
2023/11/17 00:06:47;;;;;;;3.30;2.38;;;;;;;1.68;95.53;101489.78;5095374;28;20111;-69
2023/11/17 00:09:13;;;;;;;4.38;2.55;;;;;;;1.69;96.01;101486.19;5097124;28;20111;-69
2023/11/17 00:11:39;;;;;;;6.35;2.63;;;;;;;1.93;95.98;101501.09;5101411;28;20032;-68
2023/11/17 00:14:05;;;;;;;6.63;2.95;;;;;;;1.96;94.71;101493.72;5103098;28;20040;-69
2023/11/17 00:16:30;;;;;;;3.65;2.75;;;;;;;1.68;96.11;101484.50;5100848;28;20028;-69
2023/11/17 00:18:56;;;;;;;4.22;2.60;;;;;;;1.88;95.69;101499.63;5102275;28;20054;-69
2023/11/17 00:21:21;;;;;;;4.32;2.60;;;;;;;1.96;94.99;101506.97;5101437;28;20039;-69
2023/11/17 00:23:46;;;;;;;3.63;2.25;;;;;;;1.85;95.71;101499.91;5101757;28;20043;-69
2023/11/17 00:26:12;;;;;;;3.90;2.38;;;;;;;1.99;95.41;101503.25;5101496;28;20115;-69
2023/11/17 00:28:42;;;;;;;5.95;2.80;;;;;;;1.96;95.35;101484.91;5101147;28;20135;-69
2023/11/17 00:31:10;;;;;;;3.38;2.20;;;;;;;1.80;95.85;101493.28;5102772;28;20090;-69
2023/11/17 00:33:42;;;;;;;4.75;3.10;;;;;;;1.88;96.30;101504.94;5102197;28;20115;-69
2023/11/17 00:36:09;;;;;;;4.53;2.63;;;;;;;1.84;95.76;101503.50;5096438;28;20036;-69
2023/11/17 00:38:36;;;;;;;3.38;2.25;;;;;;;1.83;96.14;101504.47;5100422;28;20030;-69
2023/11/17 00:41:02;;;;;;;5.05;3.20;;;;;;;1.90;95.60;101511.94;5102212;28;20035;-69
2023/11/17 00:43:29;;;;;;;5.38;2.80;;;;;;;1.90;96.07;101490.72;5101777;28;20032;-69
2023/11/17 00:45:58;;;;;;;4.57;2.78;;;;;;;2.02;95.82;101516.22;5101707;28;20118;-69
2023/11/17 00:48:28;;;;;;;3.53;2.40;;;;;;;1.92;95.58;101518.81;5100470;28;20020;-69
2023/11/17 00:50:58;;;;;;;7.35;3.10;;;;;;;2.05;95.78;101514.19;5100941;28;20027;-69
2023/11/17 00:53:26;;;;;;;4.30;3.15;;;;;;;1.91;95.06;101479.13;5102155;28;20558;-69
2023/11/17 00:55:59;;;;;;;4.50;2.78;;;;;;;2.07;95.44;101519.38;5099704;28;20032;-70
2023/11/17 00:58:25;;;;;;;4.53;2.97;;;;;;;2.14;95.27;101515.22;5098678;28;20056;-68
2023/11/17 01:00:56;;;;;;;3.72;2.63;;;;;;;2.05;95.11;101522.16;5093283;28;20024;-70
2023/11/17 01:03:22;;;;;;;4.40;2.90;;;;;;;2.04;95.20;101522.25;5096902;28;20035;-70
2023/11/17 01:05:48;;;;;;;4.82;3.05;;;;;;;1.95;96.57;101515.88;5100302;28;20020;-71
2023/11/17 01:08:13;;;;;;;5.03;2.80;;;;;;;1.96;95.86;101514.09;5100349;28;20020;-68
2023/11/17 01:10:38;;;;;;;5.05;2.78;;;;;;;1.91;96.69;101511.81;5100060;28;20115;-69
2023/11/17 01:13:05;;;;;;;6.95;3.13;;;;;;;2.25;94.50;101516.97;5100676;28;20134;-69
2023/11/17 01:15:35;;;;;;;5.03;3.13;;;;;;;1.95;95.13;101505.28;5100320;28;20028;-69
2023/11/17 01:18:07;;;;;;;4.22;2.97;;;;;;;2.12;94.86;101517.19;5100473;28;20205;-69
2023/11/17 01:20:33;;;;;;;10.63;3.88;;;;;;;1.85;96.70;101529.09;5096714;28;20020;-69
2023/11/17 01:23:01;;;;;;;6.45;3.13;;;;;;;2.15;95.92;101527.53;5099656;28;20044;-68
2023/11/17 01:25:28;;;;;;;3.72;2.53;;;;;;;1.99;95.88;101521.81;5101736;28;20039;-68
2023/11/17 01:27:53;;;;;;;4.90;3.10;;;;;;;2.10;96.52;101524.41;5103641;28;20032;-69
2023/11/17 01:30:19;;;;;;;5.75;2.50;;;;;;;2.09;95.62;101523.59;5100335;28;20042;-69
2023/11/17 01:32:44;;;;;;;5.78;3.20;;;;;;;1.85;96.35;101507.00;5100431;28;20450;-69
2023/11/17 01:35:10;;;;;;;4.97;3.30;;;;;;;2.02;95.59;101522.41;5100246;28;20510;-69
2023/11/17 01:37:35;;;;;;;4.75;2.95;;;;;;;2.05;96.21;101522.16;5101706;28;20038;-69
2023/11/17 01:40:01;;;;;;;4.32;2.90;;;;;;;2.21;95.32;101532.34;5101499;28;20027;-69
2023/11/17 01:42:33;;;;;;;5.35;3.15;;;;;;;1.87;96.95;101528.97;5100312;28;20031;-69
2023/11/17 01:44:58;;;;;;;5.88;3.25;;;;;;;2.13;96.13;101536.59;5099869;28;20027;-69
2023/11/17 01:47:24;;;;;;;5.45;3.63;;;;;;;2.01;96.44;101541.09;5099178;28;20028;-69
2023/11/17 01:49:50;;;;;;;3.55;2.63;;;;;;;1.87;97.48;101526.31;5100946;28;20048;-69
2023/11/17 01:52:17;;;;;;;4.35;2.80;;;;;;;1.89;97.04;101535.00;5099256;28;20032;-69
2023/11/17 01:54:45;;;;;;;6.30;3.17;;;;;;;1.84;98.29;101543.31;5082867;28;20028;-69
2023/11/17 01:57:11;;;;;;;5.13;3.50;;;;;;;1.86;97.31;101554.66;5100762;28;20024;-69
2023/11/17 01:59:37;;;;;;;4.47;2.80;;;;;;;1.93;97.34;101543.53;5102086;28;20082;-69
2023/11/17 02:02:04;;;;;;;4.13;2.80;;;;;;;1.83;97.51;101538.13;5101860;28;20028;-69
2023/11/17 02:04:33;;;;;;;6.32;3.40;;;;;;;1.97;97.57;101537.00;5102261;28;20063;-69
2023/11/17 02:07:08;;;;;;;5.15;3.10;;;;;;;1.93;97.90;101540.91;5104026;28;20028;-69
2023/11/17 02:09:46;;;;;;;5.70;3.20;;;;;;;1.89;97.39;101516.41;5102783;28;20098;-69
2023/11/17 02:12:46;;;;;;;5.80;3.60;;;;;;;1.93;96.98;101543.53;5104723;28;20028;-69
2023/11/17 02:15:14;;;;;;;5.22;3.28;;;;;;;1.70;98.41;101548.06;5103213;28;20080;-69
2023/11/17 02:17:47;;;;;;;4.35;2.70;;;;;;;1.81;98.82;101532.94;5102726;28;20020;-69
2023/11/17 02:20:19;;;;;;;5.97;3.65;;;;;;;1.96;97.93;101536.19;5102789;28;20436;-68
2023/11/17 02:22:48;;;;;;;5.05;3.15;;;;;;;2.15;96.65;101540.78;5105289;28;20034;-69
2023/11/17 02:25:37;;;;;;;4.80;2.90;;;;;;;1.95;97.89;101541.59;5105267;28;20065;-69
2023/11/17 02:28:34;;;;;;;5.57;3.20;;;;;;;2.06;97.35;101547.72;5103928;28;20028;-69
2023/11/17 02:31:12;;;;;;;3.67;2.70;;;;;;;1.96;97.61;101549.44;5104429;28;20028;-69
2023/11/17 02:33:43;;;;;;;4.90;3.22;;;;;;;1.94;96.68;101524.81;5088077;28;20052;-69
2023/11/17 02:36:17;;;;;;;4.90;3.35;;;;;;;2.13;96.74;101550.72;5103986;28;20020;-69
2023/11/17 02:39:24;;;;;;;4.95;3.53;;;;;;;2.08;97.04;101553.72;5103093;28;20051;-69
2023/11/17 02:41:56;;;;;;;6.18;3.53;;;;;;;1.97;97.59;101556.44;5102508;28;20024;-69
2023/11/17 02:44:29;;;;;;;4.40;3.17;;;;;;;2.03;97.60;101563.91;5104749;28;20027;-69
2023/11/17 02:46:58;;;;;;;5.43;3.00;;;;;;;2.01;98.19;101564.97;5102651;28;20030;-69
2023/11/17 02:49:34;;;;;;;5.57;3.33;;;;;;;2.05;98.25;101558.44;5102212;28;20020;-69
2023/11/17 02:52:08;;;;;;;4.45;3.17;;;;;;;2.14;97.07;101563.00;5103213;28;20041;-69
2023/11/17 02:54:34;;;;;;;6.63;3.40;;;;;;;2.19;97.31;101562.66;5101759;28;20034;-68
2023/11/17 02:57:01;;;;;;;4.95;3.35;;;;;;;2.05;97.47;101561.97;5102739;28;20078;-69
2023/11/17 02:59:27;;;;;;;4.88;3.45;;;;;;;2.13;97.09;101561.34;5084643;28;20081;-69
2023/11/17 03:01:53;;;;;;;5.00;3.20;;;;;;;2.02;97.57;101564.00;5102502;28;20028;-70
2023/11/17 03:04:19;;;;;;;4.13;2.75;;;;;;;2.01;96.65;101539.28;5085182;28;20078;-69
2023/11/17 03:06:49;;;;;;;4.60;3.00;;;;;;;2.04;97.82;101548.81;5102521;28;20057;-69
2023/11/17 03:09:16;;;;;;;8.07;3.50;;;;;;;2.24;97.59;101569.25;5101454;28;20032;-69
2023/11/17 03:11:47;;;;;;;5.32;3.28;;;;;;;2.10;96.89;101569.56;5101657;28;20073;-69
2023/11/17 03:14:13;;;;;;;5.45;3.40;;;;;;;2.00;97.60;101553.53;5102620;28;20027;-69
2023/11/17 03:16:38;;;;;;;7.43;3.30;;;;;;;2.07;98.37;101560.03;5101658;28;20020;-69
2023/11/17 03:19:10;;;;;;;4.50;3.40;;;;;;;1.94;99.52;101569.94;5099324;28;20028;-69
2023/11/17 03:21:44;;;;;;;6.30;3.28;;;;;;;2.24;97.79;101569.25;5099298;28;20024;-69
2023/11/17 03:24:17;;;;;;;5.75;3.40;;;;;;;2.18;97.94;101560.94;5101526;28;20048;-69
2023/11/17 03:26:43;;;;;;;5.25;3.30;;;;;;;2.09;97.97;101562.56;5102397;28;20085;-69
2023/11/17 03:29:11;;;;;;;4.78;3.33;;;;;;;1.97;97.61;101531.72;5101041;28;20059;-70
2023/11/17 03:31:36;;;;;;;4.53;3.00;;;;;;;2.00;98.13;101565.97;5101190;28;20323;-69
2023/11/17 03:34:02;;;;;;;4.47;3.13;;;;;;;2.10;98.14;101567.72;5067419;28;20028;-70
2023/11/17 03:36:27;;;;;;;4.20;2.83;;;;;;;2.05;97.66;101571.72;5084129;28;20478;-69
2023/11/17 03:38:55;;;;;;;4.18;3.13;;;;;;;2.27;97.79;101584.94;5101067;28;20499;-69
2023/11/17 03:41:22;;;;;;;3.45;2.92;;;;;;;2.17;97.18;101581.34;5084777;28;20043;-69
2023/11/17 03:43:49;;;;;;;5.20;3.10;;;;;;;2.00;97.93;101582.72;5102407;28;20050;-69
2023/11/17 03:46:14;;;;;;;4.22;3.08;;;;;;;1.98;98.96;101575.84;5099123;28;20075;-69
2023/11/17 03:48:40;;;;;;;5.40;3.25;;;;;;;1.96;98.32;101580.47;5097682;28;20519;-70
2023/11/17 03:51:06;;;;;;;4.90;2.95;;;;;;;2.03;98.61;101579.81;5100100;28;20036;-69
2023/11/17 03:53:34;;;;;;;6.10;2.97;;;;;;;1.99;98.20;101585.53;5085393;28;20044;-69
2023/11/17 03:56:00;;;;;;;4.03;2.90;;;;;;;1.98;98.29;101583.81;5085839;28;20024;-70
2023/11/17 03:58:27;;;;;;;3.97;2.65;;;;;;;1.96;98.29;101588.41;5084012;28;20052;-69
2023/11/17 04:00:53;;;;;;;3.38;2.28;;;;;;;1.97;99.43;101582.13;5100354;28;20111;-70
2023/11/17 04:03:19;;;;;;;5.03;2.92;;;;;;;1.91;99.30;101577.31;5101332;28;20499;-69
2023/11/17 04:05:45;;;;;;;4.05;2.75;;;;;;;1.86;99.52;101578.53;5100522;28;20410;-69
2023/11/17 04:08:16;;;;;;;3.63;2.67;;;;;;;1.94;99.74;101587.69;5101542;28;20052;-69
2023/11/17 04:10:45;;;;;;;3.90;2.67;;;;;;;1.89;99.83;101582.75;5105999;28;20059;-69
2023/11/17 04:13:11;;;;;;;5.13;3.10;;;;;;;1.92;99.54;101590.47;5112426;28;20024;-69
2023/11/17 04:15:37;;;;;;;5.88;2.85;;;;;;;1.92;99.90;101585.16;5104465;28;20024;-69
2023/11/17 04:18:02;;;;;;;4.55;2.72;;;;;;;1.94;99.91;101585.03;5083127;28;20043;-69
2023/11/17 04:20:28;;;;;;;5.88;2.80;;;;;;;2.08;98.65;101572.31;5100875;28;20036;-69
2023/11/17 04:22:53;;;;;;;4.45;3.00;;;;;;;2.20;98.84;101586.41;5100046;28;20046;-70
2023/11/17 04:25:19;;;;;;;6.28;3.10;;;;;;;2.14;98.46;101584.25;5099837;28;20032;-70
2023/11/17 04:27:44;;;;;;;3.75;2.80;;;;;;;2.02;98.36;101569.31;5073940;28;20020;-71
2023/11/17 04:30:11;;;;;;;4.15;2.70;;;;;;;2.08;98.67;101582.09;5082324;28;20095;-70
2023/11/17 04:32:36;;;;;;;3.65;2.70;;;;;;;2.12;98.58;101583.56;5094718;28;20407;-69
2023/11/17 04:35:03;;;;;;;4.50;2.38;;;;;;;2.06;98.58;101582.22;5100329;28;20091;-70
2023/11/17 04:37:28;;;;;;;5.10;2.53;;;;;;;2.03;98.51;101579.00;5065782;28;20036;-70
2023/11/17 04:39:55;;;;;;;3.13;2.40;;;;;;;1.95;99.26;101578.75;5099900;28;20036;-69
2023/11/17 04:42:20;;;;;;;4.15;2.67;;;;;;;2.14;98.16;101584.25;5098767;28;20099;-70
2023/11/17 04:44:47;;;;;;;3.50;2.42;;;;;;;2.33;97.80;101592.41;5099527;28;20070;-70
2023/11/17 04:47:14;;;;;;;6.03;2.22;;;;;;;2.06;98.53;101599.97;5104024;28;20046;-69
2023/11/17 04:49:40;;;;;;;3.50;2.47;;;;;;;1.99;99.56;101581.06;5101691;28;20050;-70
2023/11/17 04:52:05;;;;;;;3.45;2.33;;;;;;;2.43;97.34;101600.47;5083246;28;20024;-69
2023/11/17 04:54:30;;;;;;;3.90;2.25;;;;;;;2.14;98.05;101599.34;5103514;28;20020;-70
2023/11/17 04:56:56;;;;;;;3.33;2.40;;;;;;;2.27;97.71;101592.91;5104692;28;20036;-70
2023/11/17 04:59:21;;;;;;;4.00;2.42;;;;;;;2.23;97.13;101583.50;5083244;28;20084;-71
2023/11/17 05:01:46;;;;;;;4.15;2.45;;;;;;;2.32;96.84;101596.03;5066360;28;20034;-70
2023/11/17 05:04:13;;;;;;;4.47;2.40;;;;;;;1.92;99.15;101594.91;5100338;28;20028;-69
2023/11/17 05:06:42;;;;;;;3.22;2.10;;;;;;;1.92;99.77;101605.53;5100909;28;20027;-70
2023/11/17 05:09:12;;;;;;;3.00;2.05;;;;;;;2.04;99.83;101610.69;5101792;28;20043;-70
2023/11/17 05:11:41;;;;;;;3.72;2.15;;;;;;;2.02;99.28;101602.03;5102163;28;20020;-70
2023/11/17 05:14:06;;;;;;;4.13;2.25;;;;;;;2.02;99.36;101611.78;5100268;28;20023;-68
2023/11/17 05:16:37;;;;;;;3.75;2.00;;;;;;;2.29;98.58;101604.25;5101942;28;20084;-69
2023/11/17 05:19:03;;;;;;;2.90;2.10;;;;;;;2.24;97.36;101603.78;5101195;28;20050;-69
2023/11/17 05:21:30;;;;;;;3.15;2.10;;;;;;;2.18;99.14;101617.53;5091962;28;20026;-68
2023/11/17 05:23:56;;;;;;;3.95;2.13;;;;;;;2.16;97.94;101585.00;5113416;28;20038;-68
2023/11/17 05:26:21;;;;;;;2.85;1.95;;;;;;;2.20;97.54;101615.63;5112264;28;20027;-68
2023/11/17 05:28:47;;;;;;;2.80;2.15;;;;;;;2.29;97.48;101611.38;5099073;28;20360;-71
2023/11/17 05:31:12;;;;;;;4.40;2.03;;;;;;;2.22;97.68;101608.38;5060749;28;20035;-69
2023/11/17 05:33:38;;;;;;;4.32;2.20;;;;;;;2.17;98.84;101634.44;5060219;28;20690;-67
2023/11/17 05:36:03;;;;;;;2.83;2.30;;;;;;;2.27;97.99;101626.59;5079379;28;20064;-67
2023/11/17 05:38:29;;;;;;;4.95;2.20;;;;;;;2.17;99.45;101621.19;5079108;28;20107;-68
2023/11/17 05:40:56;;;;;;;2.55;2.28;;;;;;;1.97;99.43;101600.72;5074006;28;20028;-69
2023/11/17 05:43:22;;;;;;;2.30;1.90;;;;;;;2.26;99.09;101631.06;5082397;28;20032;-69
2023/11/17 05:45:50;;;;;;;3.25;2.25;;;;;;;2.20;99.61;101636.88;5100947;28;20024;-70
2023/11/17 05:48:16;;;;;;;2.55;1.85;;;;;;;2.17;99.08;101642.41;5104793;28;20081;-68
2023/11/17 05:50:42;;;;;;;4.15;2.15;;;;;;;2.20;99.31;101634.22;5102333;28;20032;-68
2023/11/17 05:53:07;;;;;;;3.92;2.05;;;;;;;2.55;97.34;101641.09;5101946;28;20039;-69
2023/11/17 05:55:32;;;;;;;2.30;1.83;;;;;;;2.09;99.17;101640.38;5100548;28;20044;-69
2023/11/17 05:57:58;;;;;;;2.45;2.00;;;;;;;2.38;98.55;101644.28;5084355;28;20052;-69
2023/11/17 06:00:27;;;;;;;3.97;2.20;;;;;;;2.41;98.83;101634.25;5097990;28;20036;-69
2023/11/17 06:02:53;;;;;;;4.22;2.50;;;;;;;2.26;98.28;101631.06;5097710;28;20277;-69
2023/11/17 06:05:22;;;;;;;3.83;2.05;;;;;;;2.11;99.63;101592.47;5096996;28;20107;-69
2023/11/17 06:07:48;;;;;;;3.92;2.28;;;;;;;2.52;97.15;101630.75;5098497;28;20020;-68
2023/11/17 06:10:13;;;;;;;3.33;2.25;;;;;;;2.38;98.36;101641.63;5098739;28;20036;-68
2023/11/17 06:12:39;;;;;;;3.55;2.35;;;;;;;2.35;98.74;101648.91;5099317;28;20031;-68
2023/11/17 06:15:05;;;;;;;3.50;2.30;;;;;;;2.44;99.19;101651.78;5097030;28;20032;-69
2023/11/17 06:17:31;;;;;;;3.17;1.95;;;;;;;2.43;99.39;101652.75;5082680;28;20028;-69
2023/11/17 06:20:00;;;;;;;3.00;2.28;;;;;;;2.46;98.14;101663.97;5100024;28;20085;-68
2023/11/17 06:22:28;;;;;;;4.38;2.55;;;;;;;2.32;98.80;101637.69;5098954;28;20024;-68
2023/11/17 06:24:54;;;;;;;3.00;2.42;;;;;;;2.42;99.01;101666.97;5101495;28;20020;-68
2023/11/17 06:27:19;;;;;;;4.63;2.10;;;;;;;2.43;98.42;101660.72;5084105;28;20042;-68
2023/11/17 06:29:45;;;;;;;4.30;2.70;;;;;;;2.53;99.08;101670.44;5101414;28;20590;-68
2023/11/17 06:32:11;;;;;;;3.60;2.45;;;;;;;2.69;97.54;101671.88;5101305;28;20038;-68
2023/11/17 06:34:37;;;;;;;2.72;2.05;;;;;;;2.24;98.40;101648.91;5101844;28;20034;-68
2023/11/17 06:37:03;;;;;;;4.07;2.53;;;;;;;2.46;99.98;101681.72;5093175;28;20042;-69
2023/11/17 06:39:29;;;;;;;3.53;2.45;;;;;;;2.23;100.00;101689.72;5079954;28;20032;-70
2023/11/17 06:41:55;;;;;;;3.17;2.30;;;;;;;2.33;100.00;101688.00;5101988;28;20478;-71
2023/11/17 06:44:21;;;;;;;4.68;2.75;;;;;;;2.66;98.68;101685.41;5104305;28;20032;-70
2023/11/17 06:46:51;;;;;;;3.65;2.35;;;;;;;2.63;99.07;101686.50;5108211;28;20038;-70
2023/11/17 06:49:22;;;;;;;3.85;2.40;;;;;;;2.59;98.40;101682.41;5104561;28;20024;-70
2023/11/17 06:51:48;;;;;;;5.40;2.55;;;;;;;2.41;100.00;101698.00;5107384;28;20012;-70
2023/11/17 06:54:15;;;;;;;3.40;2.33;;;;;;;2.51;98.84;101685.66;5107831;28;20023;-70
2023/11/17 06:56:44;;;;;;;4.18;2.40;;;;;;;2.58;99.95;101704.59;5112434;28;20008;-70
2023/11/17 06:59:11;;;;;;;3.33;2.45;;;;;;;2.61;99.39;101707.00;5114328;28;20070;-70
2023/11/17 07:01:36;;;;;;;3.85;2.47;;;;;;;2.61;99.07;101712.31;5113252;28;20048;-70
2023/11/17 07:04:05;;;;;;;4.63;2.20;;;;;;;2.69;98.64;101717.03;5106483;28;20510;-69
2023/11/17 07:06:31;;;;;;;4.45;2.50;;;;;;;2.85;97.62;101728.09;5104815;28;20024;-69
2023/11/17 07:08:57;;;;;;;5.68;2.60;;;;;;;2.49;99.16;101713.34;5104945;28;20074;-70
2023/11/17 07:11:24;;;;;;;6.65;2.92;;;;;;;2.69;99.41;101715.22;5106158;28;20029;-69
2023/11/17 07:13:49;;;;;;;3.50;2.50;;;;;;;2.58;100.00;101725.84;5103093;28;20032;-69
2023/11/17 07:16:18;;;;;;;5.10;2.53;;;;;;;2.80;99.73;101719.66;5105127;28;20103;-69
2023/11/17 07:18:43;;;;;;;5.53;2.90;;;;;;;2.83;98.72;101727.38;5086802;28;20024;-69
2023/11/17 07:21:09;;;;;;;3.45;2.20;;;;;;;2.73;98.36;101729.94;5104610;28;20028;-69
2023/11/17 07:23:35;;;;;;;3.60;2.53;;;;;;;2.51;100.00;101717.53;5104495;28;20039;-70
2023/11/17 07:26:02;;;;;;;5.18;3.00;;;;;;;2.85;99.95;101732.53;5108383;28;20036;-68
2023/11/17 07:28:28;;;;;;;4.20;3.10;;;;;;;2.82;98.49;101718.56;5108655;28;20038;-69
2023/11/17 07:30:53;;;;;;;3.78;2.63;;;;;;;2.92;98.53;101736.41;5090237;28;20405;-68
2023/11/17 07:33:19;;;;;;;5.95;2.75;;;;;;;2.88;98.20;101722.53;5106802;28;20024;-69
2023/11/17 07:35:45;;;;;;;4.60;2.35;;;;;;;3.04;97.64;101740.69;5108231;28;20039;-69
2023/11/17 07:38:10;;;;;;;5.18;3.00;;;;;;;2.90;99.27;101735.69;5107842;28;20027;-69
2023/11/17 07:40:36;;;;;;;3.60;2.63;;;;;;;2.73;100.00;101745.03;5108289;28;20028;-69
2023/11/17 07:43:01;;;;;;;4.13;2.78;;;;;;;2.66;100.00;101728.75;5105489;28;20020;-69
2023/11/17 07:45:27;;;;;;;4.13;2.55;;;;;;;2.93;99.11;101748.72;5084017;28;20099;-69
2023/11/17 07:47:54;;;;;;;5.82;2.67;;;;;;;2.86;99.72;101750.22;5067472;28;20508;-69
2023/11/17 07:50:19;;;;;;;6.22;3.22;;;;;;;2.66;100.00;101739.38;5105602;28;20052;-69
2023/11/17 07:52:45;;;;;;;4.35;2.78;;;;;;;2.77;100.00;101757.94;5104506;28;20043;-69
2023/11/17 07:55:13;;;;;;;4.85;2.53;;;;;;;3.02;100.00;101767.44;5103312;28;20581;-69
2023/11/17 07:57:41;;;;;;;4.30;2.85;;;;;;;2.99;100.00;101765.03;5104395;28;20036;-69
2023/11/17 08:00:18;;;;;;;6.65;2.80;;;;;;;3.09;100.00;101765.09;5103814;28;20032;-69
2023/11/17 08:02:44;;;;;;;4.28;2.78;;;;;;;3.06;99.41;101773.34;5104680;28;20028;-69
2023/11/17 08:05:10;;;;;;;3.50;2.88;;;;;;;3.31;98.21;101777.44;5105837;28;20028;-69
2023/11/17 08:07:36;;;;;;;4.85;2.88;;;;;;;3.40;97.29;101775.84;5104996;28;20043;-69
2023/11/17 08:10:05;;;;;;;4.28;2.58;;;;;;;3.46;96.98;101776.19;5103478;28;20032;-68
2023/11/17 08:12:32;;;;;;;4.63;2.72;;;;;;;3.31;97.69;101774.78;5103412;28;20382;-68
2023/11/17 08:14:58;;;;;;;4.20;2.83;;;;;;;3.40;98.40;101775.84;5104649;28;20032;-69
2023/11/17 08:17:24;;;;;;;5.35;2.70;;;;;;;3.45;97.35;101779.81;5102275;28;20062;-69
2023/11/17 08:19:49;;;;;;;5.38;2.75;;;;;;;3.37;97.34;101760.13;5103616;28;20042;-69
2023/11/17 08:22:15;;;;;;;6.70;2.75;;;;;;;3.60;97.32;101785.66;5082670;28;20115;-68
2023/11/17 08:24:40;;;;;;;4.43;2.72;;;;;;;3.57;97.23;101785.91;5086528;28;20024;-69
2023/11/17 08:27:06;;;;;;;6.05;2.70;;;;;;;3.22;98.83;101752.47;5105351;28;20145;-69
2023/11/17 08:29:31;;;;;;;3.55;2.65;;;;;;;3.52;98.01;101780.16;5104855;28;20032;-69
2023/11/17 08:31:56;;;;;;;4.07;2.63;;;;;;;3.56;97.98;101786.06;5104180;28;20504;-69
2023/11/17 08:34:22;;;;;;;5.45;2.80;;;;;;;3.56;97.68;101794.88;5086958;28;20028;-69
2023/11/17 08:36:48;;;;;;;4.07;2.53;;;;;;;3.74;96.68;101788.00;5086436;28;20028;-69
2023/11/17 08:39:25;;;;;;;4.03;2.90;;;;;;;3.67;97.16;101788.63;5104255;28;20024;-69
2023/11/17 08:41:51;;;;;;;4.47;2.80;;;;;;;3.66;96.18;101771.84;5103491;28;20028;-69
2023/11/17 08:44:16;;;;;;;4.70;2.85;;;;;;;3.84;96.27;101789.88;5103161;28;20085;-69
2023/11/17 08:46:42;;;;;;;3.88;2.60;;;;;;;3.64;96.42;101797.75;5102294;28;20028;-69
2023/11/17 08:49:07;;;;;;;5.00;2.67;;;;;;;3.46;98.02;101797.47;5102276;28;20122;-70
2023/11/17 08:51:33;;;;;;;3.83;2.53;;;;;;;3.45;98.40;101794.94;5084475;28;20106;-69
2023/11/17 08:53:58;;;;;;;4.03;2.97;;;;;;;3.39;97.92;101779.50;5100564;28;20028;-69
2023/11/17 08:56:24;;;;;;;5.32;3.00;;;;;;;3.43;98.57;101797.72;5094786;28;20027;-70
2023/11/17 08:58:50;;;;;;;3.50;2.33;;;;;;;3.45;98.14;101794.94;5083628;28;20090;-69
2023/11/17 09:01:16;;;;;;;5.28;2.63;;;;;;;3.60;97.98;101792.78;5102885;28;20036;-69
2023/11/17 09:03:42;;;;;;;4.35;2.70;;;;;;;3.51;97.42;101802.41;5102093;28;20027;-69
2023/11/17 09:06:08;;;;;;;3.75;2.83;;;;;;;3.66;97.55;101803.78;5102350;28;20039;-69
2023/11/17 09:08:33;;;;;;;4.75;3.10;;;;;;;3.56;97.88;101796.69;5102012;28;20031;-69
2023/11/17 09:10:59;;;;;;;3.55;2.50;;;;;;;3.63;97.19;101804.03;5085252;28;20043;-69
2023/11/17 09:13:25;;;;;;;4.18;2.83;;;;;;;3.61;96.92;101787.38;5103120;28;20069;-69
2023/11/17 09:15:50;;;;;;;3.15;2.58;;;;;;;3.59;96.68;101810.59;5101932;28;20051;-69
2023/11/17 09:18:15;;;;;;;4.13;2.45;;;;;;;3.68;97.52;101823.13;5102672;28;20024;-68
2023/11/17 09:20:42;;;;;;;3.50;2.60;;;;;;;3.64;97.39;101821.72;5100682;28;20028;-70
2023/11/17 09:23:07;;;;;;;4.53;2.75;;;;;;;3.55;98.29;101822.47;5101363;28;20042;-70
2023/11/17 09:25:32;;;;;;;4.00;2.65;;;;;;;3.64;97.59;101835.00;5100870;28;20035;-69
2023/11/17 09:27:58;;;;;;;3.70;2.50;;;;;;;3.17;97.89;101759.97;5083369;28;20024;-69
2023/11/17 09:30:24;;;;;;;5.03;2.78;;;;;;;3.85;96.47;101826.19;5083516;28;20048;-69
2023/11/17 09:32:57;;;;;;;4.93;2.83;;;;;;;3.84;97.05;101832.47;5104964;28;20044;-69
2023/11/17 09:35:25;;;;;;;4.85;2.85;;;;;;;3.67;97.75;101824.06;5105939;28;20108;-69
2023/11/17 09:37:53;;;;;;;4.15;2.88;;;;;;;3.87;97.19;101842.84;5088881;28;20091;-69
2023/11/17 09:40:23;;;;;;;4.57;2.90;;;;;;;3.70;97.71;101838.94;5110587;28;20028;-69
2023/11/17 09:43:11;;;;;;;4.00;2.67;;;;;;;3.72;98.31;101840.53;5111828;28;20030;-69
2023/11/17 09:45:37;;;;;;;3.83;2.95;;;;;;;3.88;96.86;101853.38;5109649;28;20035;-69
2023/11/17 09:48:06;;;;;;;4.30;2.88;;;;;;;3.79;97.14;101855.97;5101359;28;20077;-68
2023/11/17 09:50:34;;;;;;;3.90;2.85;;;;;;;3.69;97.74;101859.41;5099656;28;20035;-70
2023/11/17 09:53:00;;;;;;;4.57;2.75;;;;;;;3.78;97.21;101859.63;5096564;28;20523;-69
2023/11/17 09:55:33;;;;;;;3.78;2.78;;;;;;;3.63;98.13;101851.09;5101173;28;20032;-68
2023/11/17 09:58:03;;;;;;;4.97;2.88;;;;;;;3.61;98.81;101859.22;5101090;28;20044;-69
2023/11/17 10:00:29;;;;;;;4.70;3.00;;;;;;;3.77;98.07;101872.06;5102752;28;20088;-69
2023/11/17 10:02:57;;;;;;;4.70;2.90;;;;;;;3.70;97.75;101868.22;5100839;28;20028;-69
2023/11/17 10:05:24;;;;;;;5.47;3.10;;;;;;;3.92;97.09;101875.28;5100464;28;20025;-69
2023/11/17 10:08:02;;;;;;;5.68;3.10;;;;;;;3.89;97.01;101875.53;5101482;28;20081;-69
2023/11/17 10:10:30;;;;;;;6.93;3.60;;;;;;;3.92;96.34;101872.63;5100219;28;20107;-68
2023/11/17 10:12:58;;;;;;;4.50;2.97;;;;;;;3.92;96.50;101869.94;5101278;28;20020;-69
2023/11/17 10:15:28;;;;;;;4.22;2.70;;;;;;;3.83;95.59;101846.75;5100687;28;20024;-68
2023/11/17 10:17:59;;;;;;;3.83;2.60;;;;;;;4.17;95.19;101885.53;5100204;28;20031;-69
2023/11/17 10:20:26;;;;;;;4.80;3.28;;;;;;;3.98;95.37;101880.94;5102972;28;20024;-69
2023/11/17 10:22:52;;;;;;;4.43;3.13;;;;;;;4.18;94.91;101883.72;5086614;28;20124;-69
2023/11/17 10:25:18;;;;;;;4.63;2.80;;;;;;;4.21;94.95;101881.63;5104089;28;20054;-69
2023/11/17 10:27:51;;;;;;;4.60;3.20;;;;;;;4.22;94.80;101885.16;5102960;28;20039;-69
2023/11/17 10:30:24;;;;;;;3.92;2.78;;;;;;;4.15;94.69;101878.66;5103711;28;20028;-69
2023/11/17 10:33:13;;;;;;;4.85;2.80;;;;;;;4.15;95.60;101881.31;5104639;28;20422;-69
2023/11/17 10:35:58;;;;;;;5.07;2.88;;;;;;;4.41;94.13;101879.94;5104619;28;20096;-68
2023/11/17 10:38:25;;;;;;;3.42;2.42;;;;;;;4.39;93.97;101881.88;5104723;28;20028;-69
2023/11/17 10:40:50;;;;;;;4.10;2.75;;;;;;;4.39;94.42;101886.34;5103417;28;20118;-68
2023/11/17 10:43:16;;;;;;;5.07;2.90;;;;;;;3.97;96.17;101862.41;5103742;28;20045;-69
2023/11/17 10:45:43;;;;;;;5.22;2.85;;;;;;;4.20;96.68;101890.59;5103409;28;20088;-70
2023/11/17 10:48:13;;;;;;;2.88;2.20;;;;;;;4.23;96.48;101885.00;5105753;28;20056;-69
2023/11/17 10:50:42;;;;;;;3.83;2.50;;;;;;;4.22;96.13;101890.47;5103550;28;20028;-69
2023/11/17 10:53:20;;;;;;;5.63;2.80;;;;;;;4.39;95.39;101891.69;5103338;28;20071;-70
2023/11/17 10:55:53;;;;;;;4.25;2.63;;;;;;;4.02;96.43;101857.53;5106668;28;20039;-69
2023/11/17 10:58:19;;;;;;;3.72;2.70;;;;;;;4.37;95.38;101889.16;5105119;28;20048;-70
2023/11/17 11:00:47;;;;;;;3.25;2.70;;;;;;;4.51;94.57;101889.78;5104405;28;20518;-69
2023/11/17 11:03:13;;;;;;;4.00;2.92;;;;;;;4.29;95.24;101882.78;5103831;28;20536;-69
2023/11/17 11:05:48;;;;;;;5.70;3.10;;;;;;;4.44;94.77;101905.47;5105072;28;20031;-69
2023/11/17 11:08:17;;;;;;;4.13;2.95;;;;;;;4.30;95.28;101905.78;5103809;28;20032;-69
2023/11/17 11:10:49;;;;;;;5.50;2.65;;;;;;;4.26;96.04;101893.72;5105546;28;20032;-69
2023/11/17 11:13:14;;;;;;;6.10;3.25;;;;;;;4.38;95.52;101908.66;5105140;28;20020;-69
2023/11/17 11:15:40;;;;;;;3.67;2.95;;;;;;;4.52;94.64;101897.66;5084330;28;20625;-69
2023/11/17 11:18:08;;;;;;;3.65;2.47;;;;;;;4.33;94.86;101905.53;5101538;28;20036;-69
2023/11/17 11:20:38;;;;;;;5.35;2.97;;;;;;;4.40;94.66;101904.91;5101471;28;20089;-69
2023/11/17 11:23:05;;;;;;;4.18;2.67;;;;;;;4.43;94.77;101917.94;5102927;28;20062;-69
2023/11/17 11:25:31;;;;;;;4.72;2.67;;;;;;;4.51;94.57;101916.44;5103480;28;20034;-69
2023/11/17 11:28:00;;;;;;;4.60;2.58;;;;;;;4.32;93.93;101917.19;5104196;28;20042;-69
2023/11/17 11:30:26;;;;;;;3.08;2.58;;;;;;;4.35;93.27;101923.09;5103628;28;20049;-69
2023/11/17 11:32:52;;;;;;;4.53;2.80;;;;;;;4.21;93.74;101905.63;5104543;28;20084;-69
2023/11/17 11:35:17;;;;;;;3.28;2.28;;;;;;;4.38;93.76;101920.16;5102870;28;20046;-69
2023/11/17 11:37:43;;;;;;;3.58;2.50;;;;;;;4.39;93.41;101918.34;5103998;28;20077;-69